Tiempo atmosférico en la estación meteorológica de Almería Aeropuerto, Almería (21 m.)



Fecha
DESCASC
Temp. máxima en grados centígrados (hora)
DESCASC
Temp. mínima en grados centígrados (hora)
DESCASC
Temp. media en grados centígrados
DESCASC
Racha de viento máxima en m/sg (hora)
DESCASC
Velocidad máxima media en intervalos de 10 minutos(hora)
DESCASC
Precipitaciones diarias en mm
DESCASC
Precipitaciones de 00:00 a 06:00 en mm
DESCASC
Precipitaciones de 06:00 a 12:00 en mm
DESCASC
Precipitaciones de 12:00 a 18:00 en mm
DESCASC
Precipitaciones de 18:00 a 24:00 en mm
DESCASC
17-09-2020 30.2 (16:10) 23.6 (06:10) 26.9 7.22 (21:50) 5.28 (22:00) 0.4 0 0.4 0 0
16-09-2020 28.2 (16:10) 21 (08:00) 24.6 6.67 (12:30) 5.56 (13:00) 0 0 0 0 0
15-09-2020 32.6 (12:20) 22.5 (07:00) 27.5 8.89 (09:20) 5.83 (09:10) 0 0 0 0 0
14-09-2020 34.3 (15:30) 24.2 (00:00) 29.3 15.28 (13:00) 10.28 (22:00) 0 0 0 0 0
13-09-2020 33.5 (15:20) 25.1 (00:00) 29.3 15 (17:30) 11.11 (17:20) 0 0 0 0 0
12-09-2020 34.7 (16:00) 22.3 (00:00) 28.5 13.89 (14:00) 10 (18:50) 0 0 0 0 0
11-09-2020 29.1 (16:20) 19.9 (00:00) 24.5 7.22 (14:20) 5.28 (14:20) 0 0 0 0 0
10-09-2020 27.3 (14:20) 18.4 (00:00) 22.8 6.67 (13:30) 5 (13:40) -- -- 0 0 0
09-09-2020 29 (12:00) 19.7 (00:00) 24.4 8.89 (13:30) 6.67 (13:40) 0 0 0 0 0
08-09-2020 30.3 (15:30) 23.3 (00:00) 26.8 15.28 (16:40) 10.83 (18:00) -- 0 0 0 --
07-09-2020 27.5 (14:40) 20.3 (07:30) 23.9 10.28 (22:10) 6.67 (23:30) 0 0 0 0 0
06-09-2020 32 (15:00) 20.5 (00:00) 26.3 10.83 (12:40) 7.5 (15:20) 0 0 0 0 0
05-09-2020 31.3 (15:00) 20.2 (00:00) 25.8 12.78 (14:40) 7.22 (16:20) 0 0 0 0 0
04-09-2020 32.7 (14:30) 21.3 (00:00) 27 -- (--) -- (--) -- 0 0 0 --
03-09-2020 32 (14:30) 21.5 (00:00) 26.8 15 (19:20) 11.39 (19:40) 0 0 0 0 0
02-09-2020 29.1 (14:40) 20.9 (00:00) 25 7.78 (17:00) 5.56 (14:40) 0 0 0 0 0
01-09-2020 29.5 (11:30) 19.6 (00:00) 24.6 7.22 (11:30) 4.72 (11:30) 0 0 0 0 0
31-08-2020 30.7 (15:00) 20.4 (00:00) 25.6 13.33 (13:50) 8.89 (13:50) -- 0 0 0 --
30-08-2020 31.7 (15:20) 21.3 (00:00) 26.5 12.5 (17:10) 8.33 (16:50) 0 0 0 0 0
29-08-2020 27.1 (13:40) 21.2 (00:00) 24.2 20.56 (16:00) 16.11 (16:00) -- 0 0 0 --
28-08-2020 30.1 (17:10) 22.8 (00:00) 26.4 12.78 (18:50) 8.61 (19:10) 0 0 0 0 0
27-08-2020 30 (15:20) 21.9 (00:00) 25.9 6.11 (14:20) 4.72 (14:20) 0 0 0 0 0
26-08-2020 30.3 (15:10) 21.9 (00:00) 26.1 6.11 (13:30) 4.44 (13:40) 0 0 0 0 0
25-08-2020 31.1 (15:30) 23.8 (00:00) 27.4 7.22 (14:10) 5.28 (16:10) 0 0 0 0 0
24-08-2020 34.5 (15:00) 24.6 (00:00) 29.6 11.39 (13:30) 7.22 (12:00) 0 0 0 0 0
23-08-2020 -- (--) -- (--) -- -- (--) -- (--) -- 0 -- 0 0
22-08-2020 29.7 (15:40) 20.6 (00:00) 25.2 5 (12:20) 3.89 (12:40) 0 0 0 0 0
21-08-2020 29 (14:40) 23.8 (00:00) 26.4 8.33 (04:50) 5.83 (04:50) 0 0 0 0 0
20-08-2020 30.4 (17:10) 22 (00:00) 26.2 5.83 (14:50) 4.17 (14:50) 0 0 0 0 0
19-08-2020 30.2 (14:00) 20.9 (00:00) 25.6 7.22 (17:10) 5.83 (17:20) 0 0 0 0 0

Gráficas

Temp. máximas Temp. mínimas Temp. medias Precipitaciones Rachas de viento máximas Velocidades máximas media en intervalos de 10 minutos

Datos horarios

Fecha y hora oficial Temperatura (ºC) Velocidad del viento (km/h) Dirección del viento Racha (km/h) Dirección de racha Precipitación (mm) Presión (hPa) Tendencia (hPa) Humedad (%)
2020-09-17 23:00:00 24.9 10 Sudoeste 26 Sudoeste 0 1013.3 -- 89
2020-09-17 22:00:00 25.5 19 Oeste 26 Oeste 0 1012.6 -- 80
2020-09-17 21:00:00 26.4 9 Sudoeste 13 Sur 0 1010.7 -- 78
2020-09-17 20:00:00 27.3 9 Sudoeste 15 Sudoeste 0 1010.3 -- 68
2020-09-17 19:00:00 28.5 10 Sudoeste 15 Sudoeste 0 1009.9 -- 66
2020-09-17 18:00:00 28.9 9 Sudoeste 17 Sur 0 1010.5 -- 68
2020-09-17 17:00:00 29.1 12 Sur 17 Sur 0 1011.2 -- 68
2020-09-17 16:00:00 29.4 10 Sur 22 Sur 0 1011.5 -- 65
2020-09-17 15:00:00 27.9 14 Sur 22 Sur 0 1012.2 -- 75
2020-09-17 14:00:00 29.1 15 Sur 22 Sur 0 1012.4 -- 71
2020-09-17 13:00:00 27.6 17 Sur 22 Sur 0 1013 -- 75
2020-09-17 12:00:00 27.7 12 Sur 17 Sur 0 1013.8 -- 75
2020-09-17 11:00:00 26.8 9 Nordeste 13 Este 0 1013.9 -- 75
2020-09-17 10:00:00 24.4 5 Este 15 Sudoeste 0.4 1014.1 -- 91
2020-09-17 09:00:00 24.6 6 Sudoeste 11 Sudoeste 0 1014.4 -- 87
2020-09-17 08:00:00 24 2 Sur 8 Nordeste 0 1013.8 -- 86
2020-09-17 07:00:00 23.7 2 Sur 9 Este 0 1013.6 -- 86
2020-09-17 06:00:00 23.7 6 Sudeste 13 Este 0 1013.1 -- 87
2020-09-17 05:00:00 23.9 6 Este 9 Este 0 1013.3 -- 91
2020-09-17 04:00:00 24 3 Norte 8 Sudoeste 0 1013.5 -- 92
2020-09-17 03:00:00 24.3 7 Sudoeste 21 Oeste 0 1014.3 -- 90
2020-09-17 02:00:00 24.4 7 Sudoeste 13 Oeste 0 1014.7 -- 91
2020-09-17 01:00:00 24.5 4 Sudoeste 15 Oeste 0 1014.8 -- 89
2020-09-17 00:00:00 24.7 5 Sudoeste 13 Oeste 0 1014.8 -- 89
2020-09-16 23:00:00 25 11 Oeste 18 Oeste 0 1014.6 -- 85
2020-09-16 22:00:00 25.4 12 Sudoeste 13 Oeste 0 1014.3 -- 85
2020-09-16 21:00:00 25.6 5 Oeste 18 Sudoeste 0 1013.4 -- 81
2020-09-16 20:00:00 25.9 14 Sudoeste 18 Oeste 0 1013.4 -- 79
2020-09-16 19:00:00 26 14 Sudoeste 21 Sudoeste 0 1012.7 -- 82
2020-09-16 18:00:00 26.4 14 Sudoeste 18 Sudoeste 0 1012.9 -- 80
2020-09-16 17:00:00 26.7 13 Sudoeste 24 Sudoeste 0 1013.6 -- 78
2020-09-16 16:00:00 27.9 17 Sudoeste 24 Sudoeste 0 1014.1 -- 74
2020-09-16 15:00:00 27.5 16 Sudoeste 22 Sudoeste 0 1014.8 -- 73
2020-09-16 14:00:00 27.3 14 Sudoeste 24 Sur 0 1015.7 -- 73
2020-09-16 13:00:00 27.4 20 Sudoeste 24 Sudoeste 0 1016.4 -- 73
2020-09-16 12:00:00 26.8 14 Sur 18 Sudoeste 0 1016.1 -- 65
2020-09-16 11:00:00 27.1 8 Sur 11 Sur 0 1016.4 -- 58
2020-09-16 10:00:00 25.7 3 Noroeste 11 Noroeste 0 1016.7 -- 60
2020-09-16 09:00:00 23.1 5 Noroeste 9 Norte 0 1016.3 -- 70
2020-09-16 08:00:00 21.1 6 Nordeste 17 Norte 0 1015.7 -- 82
2020-09-16 07:00:00 21.9 8 Norte 21 Norte 0 1016.1 -- 80
2020-09-16 06:00:00 22.1 11 Noroeste 18 Noroeste 0 1016.1 -- 80
2020-09-16 05:00:00 21.9 9 Noroeste 13 Noroeste 0 1016.4 -- 87
2020-09-16 04:00:00 22.3 8 Norte 9 Nordeste 0 1016.7 -- 87
2020-09-16 03:00:00 22.4 -- -- -- -- 0 1017.4 -- 86
2020-09-16 02:00:00 23.4 4 Norte 9 Norte 0 1017.5 -- 83
2020-09-16 01:00:00 23.3 4 Nordeste 8 Norte 0 1017.7 -- 83
2020-09-16 00:00:00 23.8 4 Norte 5 Norte 0 1017.7 -- 83
2020-09-15 23:00:00 24 0 Calma 5 Noroeste 0 1017.5 -- 82
2020-09-15 22:00:00 24.2 2 Sudoeste 8 Sudoeste 0 1017.3 -- 82
2020-09-15 21:00:00 24.5 4 Sudoeste -- -- -- 1016.8 -- 81
2020-09-15 20:00:00 25.2 8 Sudoeste 15 Sudoeste 0 1016.6 -- 79
2020-09-15 19:00:00 26.4 12 Sudoeste 18 Sudoeste 0 1016.4 -- 74
2020-09-15 18:00:00 27.2 13 Sudoeste 22 Sudoeste 0 1016.4 -- 70
2020-09-15 17:00:00 27.8 15 Sudoeste 22 Sudoeste 0 1016.5 -- 68
2020-09-15 16:00:00 28.2 14 Sudoeste 22 Sur 0 1017 -- 66
2020-09-15 15:00:00 28.3 18 Sur 28 Sur 0 1017.8 -- 64
2020-09-15 14:00:00 29 13 Sur 21 Sur 0 1018.2 -- 61
2020-09-15 13:00:00 28.4 15 Sudoeste 30 Oeste 0 1018.6 -- 67
2020-09-15 12:00:00 31.8 14 Este 22 Este 0 1018.6 -- 38
2020-09-15 11:00:00 29.3 3 Oeste 24 Noroeste 0 1018.7 -- 43
2020-09-15 10:00:00 26.7 17 Noroeste 32 Norte 0 1018.3 -- 46
2020-09-15 09:00:00 24.5 21 Noroeste 28 Noroeste 0 1018.3 -- 55
2020-09-15 08:00:00 23.2 17 Noroeste 26 Noroeste 0 1018 -- 64
2020-09-15 07:00:00 22.6 9 Norte 17 Norte 0 1017.4 -- 59
2020-09-15 06:00:00 24.1 14 Norte 21 Norte 0 1017.1 -- 65
2020-09-15 05:00:00 24.8 7 Norte 22 Norte 0 1017.5 -- 64
2020-09-15 04:00:00 24.8 12 Nordeste 22 Norte 0 1017.2 -- 62
2020-09-15 03:00:00 24.2 20 Este 26 Este 0 1017.4 -- 70
2020-09-15 02:00:00 24.6 6 Norte 15 Norte 0 1019.4 -- 72
2020-09-15 01:00:00 24.8 14 Nordeste 22 Este 0 1019 -- 73
2020-09-15 00:00:00 25.3 17 Este 30 Este 0 1018.7 -- 67
2020-09-14 23:00:00 25.7 22 Este 46 Este 0 1017.9 -- 65
2020-09-14 22:00:00 26.4 37 Este 46 Este 0 1017 -- 62
2020-09-14 21:00:00 26.8 -- -- 41 Este 0 -- -- 60
2020-09-14 20:00:00 27.7 31 Este 41 Este 0 1016.4 -- 56
2020-09-14 19:00:00 29.1 32 Este 42 Este 0 1015.9 -- 53
2020-09-14 18:00:00 30.2 30 Este 45 Este 0 1016.2 -- 46
2020-09-14 17:00:00 31.9 32 Este 46 Este 0 1016.6 -- 38
2020-09-14 16:00:00 33.1 32 Este 46 Este 0 1017 -- 37
2020-09-14 15:00:00 32.9 31 Este 46 Este 0 1017.5 -- 39
2020-09-14 14:00:00 32.1 35 Este 46 Este 0 1018.1 -- 42
2020-09-14 13:00:00 32.2 34 Nordeste 55 Nordeste 0 1018.4 -- 36
2020-09-14 12:00:00 32 31 Este 42 Este 0 1019 -- 35
2020-09-14 11:00:00 29.9 23 Este 39 Nordeste 0 1019.2 -- 35
2020-09-14 10:00:00 29.2 8 Noroeste 18 Noroeste 0 1018.2 -- 36
2020-09-14 09:00:00 26.5 15 Norte 30 Nordeste 0 1017.5 -- 44
2020-09-14 08:00:00 25.7 15 Norte 28 Norte 0 1017.4 -- 46
2020-09-14 07:00:00 25.4 13 Norte 22 Norte 0 1017.4 -- 48
2020-09-14 06:00:00 25.7 8 Norte 21 Norte 0 1017.7 -- 47
2020-09-14 05:00:00 25.2 13 Norte 18 Norte 0 1017.7 -- 51
2020-09-14 04:00:00 25.5 13 Norte -- -- -- 1018 -- 53
2020-09-14 03:00:00 25 9 Norte 15 Norte 0 1018.9 -- 58
2020-09-14 02:00:00 26.2 0 Calma 11 Este 0 1019.2 -- 55
2020-09-14 01:00:00 26.9 5 Oeste 18 Nordeste 0 1019.4 -- 53
2020-09-14 00:00:00 28 10 Norte 41 Norte 0 1018.8 -- 44
2020-09-13 23:00:00 28.6 29 Nordeste 42 Nordeste 0 1018.8 -- 44
2020-09-13 22:00:00 28.9 27 Nordeste -- -- -- 1018.3 -- 41
2020-09-13 21:00:00 28.8 26 Nordeste 39 Este 0 1017.6 -- 44
2020-09-13 20:00:00 29.7 28 Nordeste 42 Este 0 1017.4 -- 42
2020-09-13 19:00:00 31.2 33 Nordeste 50 Este 0 1017.3 -- 39
2020-09-13 18:00:00 32.1 30 Este 54 Nordeste 0 1016.7 -- 37
2020-09-13 17:00:00 31.4 36 Este 50 Este 0 1016.7 -- 39
2020-09-13 16:00:00 31.9 30 Este 46 Este 0 1017.6 -- 35
2020-09-13 15:00:00 32.7 35 Este 48 Este 0 1017.9 -- 33
2020-09-13 14:00:00 32.2 35 Este 48 Este 0 1018.5 -- 33
2020-09-13 13:00:00 31.7 37 Este 52 Este 0 1018.8 -- 34
2020-09-13 12:00:00 31.7 29 Este 46 Este 0 1018.8 -- 36
2020-09-13 11:00:00 30.7 31 Este 45 Este 0 1018.5 -- 37
2020-09-13 10:00:00 30 28 Nordeste 42 Nordeste 0 1017.8 -- 37
2020-09-13 09:00:00 26.6 10 Nordeste 28 Este 0 1017.4 -- 43
2020-09-13 08:00:00 25.7 14 Norte 24 Noroeste 0 1016.5 -- 46
2020-09-13 07:00:00 25.6 18 Norte 30 Noroeste 0 1016 -- 46
2020-09-13 06:00:00 25.4 15 Noroeste 30 Noroeste 0 1015.8 -- 47
2020-09-13 05:00:00 25.3 19 Noroeste 32 Noroeste 0 1015.9 -- 48
2020-09-13 04:00:00 25.9 16 Noroeste 28 Noroeste 0 1016.3 -- 47
2020-09-13 03:00:00 25.5 11 Noroeste 18 Norte 0 1016.6 -- 50
2020-09-13 02:00:00 25.9 10 Norte 24 Norte 0 1017 -- 47
2020-09-13 01:00:00 27 10 Norte -- -- -- 1017 -- 42
2020-09-13 00:00:00 27.4 23 Nordeste 35 Nordeste 0 1017 -- 41
2020-09-12 23:00:00 27.8 22 Nordeste 48 Nordeste 0 1016.5 -- 40
2020-09-12 22:00:00 28.1 24 Nordeste 39 Nordeste 0 1015.6 -- 40
2020-09-12 21:00:00 28.1 20 Nordeste 41 Nordeste 0 1014.4 -- 39
2020-09-12 20:00:00 29.1 30 Este 50 Este 0 1014.1 -- 38
2020-09-12 19:00:00 31 35 Este 48 Este 0 1013.8 -- 32
2020-09-12 18:00:00 32.8 33 Este 46 Este 0 1013.6 -- 26
2020-09-12 17:00:00 33.7 32 Este 48 Este 0 1013.4 -- 25
2020-09-12 16:00:00 34.5 32 Este 48 Este 0 1013.7 -- 24
2020-09-12 15:00:00 33.9 35 Este 48 Este 0 1014.3 -- 27
2020-09-12 14:00:00 33.7 32 Este 50 Este 0 1014.4 -- 28
2020-09-12 13:00:00 33 32 Este 45 Este 0 1014.6 -- 29
2020-09-12 12:00:00 32.3 30 Nordeste 42 Este 0 1014.5 -- 29
2020-09-12 11:00:00 31.5 26 Nordeste 37 Nordeste 0 1014.2 -- 29
2020-09-12 10:00:00 29.9 19 Nordeste 28 Este 0 1013.9 -- 32
2020-09-12 09:00:00 25.9 19 Norte 30 Norte 0 1013.5 -- 38
2020-09-12 08:00:00 24.7 18 Norte 26 Norte 0 1012.9 -- 40
2020-09-12 07:00:00 24.4 14 Norte 26 Noroeste 0 1012.4 -- 41
2020-09-12 06:00:00 24.1 17 Norte 24 Noroeste 0 1012.2 -- 42
2020-09-12 05:00:00 23.4 14 Norte 22 Noroeste 0 1012.2 -- 46
2020-09-12 04:00:00 23.4 14 Noroeste 21 Noroeste 0 1012.1 -- 47
2020-09-12 03:00:00 23.5 13 Norte 17 Noroeste 0 1012 -- 49
2020-09-12 02:00:00 24.4 10 Norte 15 Norte 0 1012 -- 47
2020-09-12 01:00:00 24.8 9 Noroeste 15 Noroeste 0 1012 -- 45
2020-09-12 00:00:00 25.4 8 Nordeste 17 Norte 0 1011.9 -- 41
2020-09-11 23:00:00 26.1 12 Nordeste 22 Nordeste 0 1011.6 -- 41
2020-09-11 22:00:00 26.1 10 Nordeste 21 Nordeste 0 1011.5 -- 52
2020-09-11 21:00:00 26.2 0 Calma 9 Sudoeste 0 1010.9 -- 62
2020-09-11 20:00:00 27.3 6 Sudoeste 9 Oeste 0 1010.6 -- 54
2020-09-11 19:00:00 28.6 7 Sur 15 Sur 0 1010.8 -- 51
2020-09-11 18:00:00 28 9 Sur 21 Sur 0 1011 -- 55
2020-09-11 17:00:00 28.3 15 Sur 22 Sur 0 1011.4 -- 54
2020-09-11 16:00:00 28.6 12 Sur 18 Sur 0 1011.9 -- 51
2020-09-11 15:00:00 28.6 13 Sur 26 Sur 0 1012.6 -- 61
2020-09-11 14:00:00 28.4 16 Sur 22 Sur 0 1012.7 -- 65
2020-09-11 13:00:00 27.6 14 Sur 18 Sur 0 1013.1 -- 66
2020-09-11 12:00:00 26.9 12 Sur 17 Sur 0 1013.4 -- 63
2020-09-11 11:00:00 26.7 12 Sur 17 Sur 0 1013.5 -- 56
2020-09-11 10:00:00 25.8 10 Este 17 Noroeste 0 1013.2 -- 53
2020-09-11 09:00:00 22.3 12 Noroeste 18 Norte 0 1013.1 -- 70
2020-09-11 08:00:00 -- -- -- -- -- -- -- -- --
2020-09-11 07:00:00 20 8 Norte -- -- -- 1012.7 -- 82
2020-09-11 06:00:00 20.7 8 Norte 13 Norte 0 1012.6 -- 80
2020-09-11 05:00:00 20.4 8 Norte 13 Norte 0 1012.8 -- 82
2020-09-11 04:00:00 21.3 7 Norte 11 Norte 0 1012.8 -- 81
2020-09-11 03:00:00 21.7 6 Norte 13 Norte 0 1013.1 -- 79
2020-09-11 02:00:00 21.9 8 Norte 13 Nordeste 0 1013.5 -- 81
2020-09-11 01:00:00 22.6 11 Nordeste 18 Nordeste 0 1013.8 -- 80
2020-09-11 00:00:00 22.8 13 Nordeste 18 Nordeste 0 1014.1 -- 81
2020-09-10 23:00:00 23.2 13 Este 17 Este 0 1014.2 -- 79
2020-09-10 22:00:00 23.4 6 Este 9 Sudeste 0 1013.9 -- 78
2020-09-10 21:00:00 23.7 3 Sudeste 5 Sur 0 1013.2 -- 76
2020-09-10 20:00:00 24.7 3 Sur 13 Sur 0 1013.2 -- 74
2020-09-10 19:00:00 25.6 11 Sur 17 Sur 0 1013.3 -- 73
2020-09-10 18:00:00 26 12 Sur 18 Sur 0 1013.5 -- 72
2020-09-10 17:00:00 25.7 14 Sudoeste 21 Sur 0 1014 -- 69
2020-09-10 16:00:00 26.7 14 Sur 21 Sur 0 1014.6 -- 67
2020-09-10 15:00:00 26.4 14 Sur 22 Sur 0 1015.1 -- 66
2020-09-10 14:00:00 27 17 Sur 24 Sur 0 1015.6 -- 60
2020-09-10 13:00:00 26.4 13 Sur 21 Sur 0 1015.8 -- 67
2020-09-10 12:00:00 26.2 11 Sur 17 Sur 0 1016 -- 61
2020-09-10 11:00:00 25.7 8 Sur 13 Sur 0 1016.6 -- 56
2020-09-10 10:00:00 24.8 4 Sudeste 11 Sur 0 1016.6 -- 57
2020-09-10 09:00:00 22.3 4 Este 11 Norte 0 1016.3 -- 60
2020-09-10 08:00:00 20.6 8 Noroeste 21 Norte 0 1016 -- 63
2020-09-10 07:00:00 20.6 11 Noroeste 13 Noroeste 0 1015.9 -- 67
2020-09-10 06:00:00 20.7 10 Noroeste -- -- -- 1016.1 -- 71
2020-09-10 05:00:00 21.2 12 Norte 17 Noroeste 0 1016.5 -- 63
2020-09-10 04:00:00 21.8 12 Noroeste 18 Noroeste 0 1016.6 -- 63
2020-09-10 03:00:00 22.3 6 Norte -- -- -- 1017 -- 64
2020-09-10 02:00:00 22.3 5 Este 18 Norte 0 1017.5 -- 67
2020-09-10 01:00:00 22.7 9 Norte 15 Norte 0 1017.8 -- 69
2020-09-10 00:00:00 22.9 10 Norte 13 Norte 0 1018.3 -- 65
2020-09-09 23:00:00 23.1 8 Norte 9 Norte 0 1018.1 -- 74
2020-09-09 22:00:00 23.8 9 Oeste -- -- 0 1017.6 -- 68
2020-09-09 21:00:00 24 7 Sudoeste 13 Sudoeste 0 1016.4 -- 67
2020-09-09 20:00:00 25.1 10 Sudoeste 15 Sur 0 1016 -- 65
2020-09-09 19:00:00 26.1 12 Sur 21 Sur 0 1016.1 -- 59
2020-09-09 18:00:00 26.5 15 Sur 24 Sur 0 1016.2 -- 60
2020-09-09 17:00:00 27.2 18 Sur 30 Sur 0 1016.4 -- 59
2020-09-09 16:00:00 27.6 20 Sur 30 Sur 0 1016.8 -- 57
2020-09-09 15:00:00 27.6 21 Sur 30 Sur 0 1017.2 -- 57
2020-09-09 14:00:00 27.6 24 Sur 32 Sur 0 1017.6 -- 57
2020-09-09 13:00:00 27.5 21 Sur 28 Sur 0 1018 -- 56
2020-09-09 12:00:00 28.9 12 Sudeste 22 Sudeste 0 1018.1 -- 38
2020-09-09 11:00:00 26.8 8 Este 17 Norte 0 1018.5 -- 48
2020-09-09 10:00:00 24.1 9 Noroeste 13 Noroeste 0 1018.2 -- 55
2020-09-09 09:00:00 21.6 10 Norte 15 Norte 0 1018.1 -- 65
2020-09-09 08:00:00 20.4 5 Noroeste 15 Norte 0 1017.8 -- 70
2020-09-09 07:00:00 20.1 6 Norte -- -- -- 1017.2 -- 73
2020-09-09 06:00:00 20.6 9 Norte 17 Norte 0 1017.1 -- 74
2020-09-09 05:00:00 20.4 8 Norte 13 Norte 0 1017.6 -- 75
2020-09-09 04:00:00 21.3 4 Norte 11 Nordeste 0 1018.1 -- 73
2020-09-09 03:00:00 22.6 7 Nordeste 17 Nordeste 0 1018.3 -- 68
2020-09-09 02:00:00 22.4 4 Nordeste 26 Este 0 1018.5 -- 70
2020-09-09 01:00:00 23.5 13 Este 26 Este 0 1018.8 -- 65
2020-09-09 00:00:00 23.8 20 Este 32 Este 0 1018.9 -- 58
2020-09-08 23:00:00 23.4 14 Nordeste 24 Nordeste 0 1018.8 -- 63
2020-09-08 22:00:00 23.6 20 Nordeste -- -- -- 1018.8 -- 65
2020-09-08 21:00:00 24.2 25 Este 42 Este 0 1018.4 -- 61
2020-09-08 20:00:00 25.3 30 Este 48 Nordeste 0 1017.7 -- 54
2020-09-08 19:00:00 26.7 36 Este 54 Este 0 1017.2 -- 52
2020-09-08 18:00:00 27.9 39 Este 54 Este 0 1017 -- 51
2020-09-08 17:00:00 29.2 33 Este 55 Este 0 1016.7 -- 45
2020-09-08 16:00:00 29.9 36 Este 52 Nordeste 0 1017 -- 36
2020-09-08 15:00:00 29.6 36 Este 52 Este 0 1017.4 -- 38
2020-09-08 14:00:00 30 33 Este 46 Este 0 1017.7 -- 40
2020-09-08 13:00:00 28.5 32 Este 46 Nordeste 0 1018.2 -- 42
2020-09-08 12:00:00 27.4 28 Nordeste 41 Nordeste 0 1018.6 -- 47
2020-09-08 11:00:00 26 30 Nordeste 45 Este 0 1018.3 -- 52
2020-09-08 10:00:00 25.4 18 Nordeste 35 Nordeste 0 1017.8 -- 48
2020-09-08 09:00:00 25 20 Nordeste 37 Nordeste 0 1017.8 -- 51
2020-09-08 08:00:00 24.4 22 Nordeste 32 Nordeste 0 1017.2 -- 60
2020-09-08 07:00:00 24.4 20 Nordeste 30 Nordeste 0 1016.8 -- 60
2020-09-08 06:00:00 24.4 19 Nordeste 33 Nordeste 0 1016.4 -- 63
2020-09-08 05:00:00 24.5 22 Nordeste 35 Nordeste 0 1016.2 -- 64
2020-09-08 04:00:00 24.6 25 Nordeste 35 Nordeste 0 1016.3 -- 63
2020-09-08 03:00:00 24.5 21 Nordeste 35 Nordeste 0 1016.4 -- 68
2020-09-08 02:00:00 24.8 23 Este 37 Este 0 1016.7 -- 71
2020-09-08 01:00:00 24.8 20 Nordeste 32 Nordeste 0 1016.6 -- 74
2020-09-08 00:00:00 24.6 20 Nordeste 37 Este 0 1016.6 -- 77
2020-09-07 23:00:00 24.6 15 Nordeste 37 Este 0 1016.2 -- 71
2020-09-07 22:00:00 24.7 20 Este 33 Este 0 1015.6 -- 69
2020-09-07 21:00:00 24.4 0 Calma 9 Sudoeste 0 1014.2 -- 77
2020-09-07 20:00:00 24.8 5 Sur 13 Sur 0 1013.4 -- 79
2020-09-07 19:00:00 25.3 7 Sur 13 Sur 0 1013.1 -- 76
2020-09-07 18:00:00 26.1 10 Sur 18 Sur 0 1012.4 -- 69
2020-09-07 17:00:00 26.7 13 Sur 21 Sudoeste 0 1012.4 -- 69
2020-09-07 16:00:00 27 14 Sur 21 Sur 0 1012.8 -- 70
2020-09-07 15:00:00 27 14 Sur 21 Sur 0 1013.2 -- 70
2020-09-07 14:00:00 27 13 Sur 18 Sur 0 1013.4 -- 72
2020-09-07 13:00:00 27.2 12 Sur 18 Sudeste 0 1013.7 -- 71
2020-09-07 12:00:00 26.5 11 Sur 15 Sur 0 1013.8 -- 70
2020-09-07 11:00:00 26.2 6 Sur 13 Sur 0 1013.6 -- 70
2020-09-07 10:00:00 25.4 5 Sur 9 Sudeste 0 1013.1 -- 72
2020-09-07 09:00:00 22.8 5 Este 8 Este 0 1012.9 -- 83
2020-09-07 08:00:00 20.8 0 Calma 4 Norte 0 1012.6 -- 86
2020-09-07 07:00:00 20.4 2 Sudeste 9 Norte 0 1012.2 -- 85
2020-09-07 06:00:00 21.5 9 Norte 13 Noroeste 0 1012.4 -- 85
2020-09-07 05:00:00 21.7 9 Noroeste 13 Noroeste 0 1012.6 -- 85
2020-09-07 04:00:00 22.1 8 Norte 9 Norte 0 1013 -- 84
2020-09-07 03:00:00 22.5 6 Norte -- -- 0 1013.5 -- 83
2020-09-07 02:00:00 22.9 4 Norte -- -- 0 1013.9 -- 81
2020-09-07 01:00:00 23.5 4 Norte 8 Noroeste 0 1014.1 -- 81
2020-09-07 00:00:00 23.5 5 Noroeste 9 Oeste 0 1013.9 -- 82
2020-09-06 23:00:00 24 7 Oeste 11 Oeste 0 1013.8 -- 82
2020-09-06 22:00:00 24.7 9 Sudoeste 13 Sudoeste 0 1013.5 -- 79
2020-09-06 21:00:00 25 11 Sudoeste 21 Sudoeste 0 1013 -- 77
2020-09-06 20:00:00 25.7 13 Sudoeste 21 Sudoeste 0 1012.8 -- 74
2020-09-06 19:00:00 27 13 Sur 24 Sur 0 1012.4 -- 69
2020-09-06 18:00:00 27.6 19 Sur 30 Sur 0 1012.6 -- 68
2020-09-06 17:00:00 28 21 Sur 32 Sur 0 1013 -- 67
2020-09-06 16:00:00 28.7 24 Sur 35 Sur 0 1013.1 -- 62
2020-09-06 15:00:00 31.7 20 Sudeste 37 Este 0 1013.5 -- 41
2020-09-06 14:00:00 31.4 21 Este 37 Este 0 1013.8 -- 45
2020-09-06 13:00:00 30.7 24 Este 39 Este 0 1014.1 -- 44
2020-09-06 12:00:00 29.1 20 Este 33 Nordeste 0 1014.4 -- 48
2020-09-06 11:00:00 28.5 22 Este 32 Este 0 1014.4 -- 52
2020-09-06 10:00:00 26.9 15 Este 22 Este 0 1014.2 -- 57
2020-09-06 09:00:00 23.9 12 Noroeste 18 Noroeste 0 1014.4 -- 67
2020-09-06 08:00:00 22.4 10 Noroeste 15 Noroeste 0 1014.1 -- 74
2020-09-06 07:00:00 20.9 8 Norte 13 Este 0 1013.7 -- 78
2020-09-06 06:00:00 21.5 5 Noroeste 9 Noroeste 0 1013.6 -- 78
2020-09-06 05:00:00 21.5 6 Este 13 Este 0 1013.6 -- 76
2020-09-06 04:00:00 22.7 5 Norte 9 Norte 0 1014 -- 72
2020-09-06 03:00:00 23 4 Norte 11 Norte 0 1014.4 -- 71
2020-09-06 02:00:00 23.4 8 Norte 11 Norte 0 1015 -- 71
2020-09-06 01:00:00 23.3 0 Calma 11 Este 0 1015.6 -- 70
2020-09-06 00:00:00 23.7 8 Este -- -- -- 1015.8 -- 71
2020-09-05 23:00:00 24.1 11 Este 24 Este 0 1015.6 -- 71
2020-09-05 22:00:00 24.8 20 Este 28 Este 0 1015.3 -- 69
2020-09-05 21:00:00 25.6 15 Este 28 Este 0 1014.6 -- 63
2020-09-05 20:00:00 27.4 18 Este 32 Este 0 1014.2 -- 56
2020-09-05 19:00:00 28.9 17 Este 32 Sur 0 1014 -- 53
2020-09-05 18:00:00 27.5 22 Sur 32 Sur 0 1014.5 -- 68
2020-09-05 17:00:00 28 25 Sur 35 Sur 0 1014.8 -- 65
2020-09-05 16:00:00 29.4 24 Sur 42 Sudeste 0 1015.3 -- 59
2020-09-05 15:00:00 30.9 17 Sudeste 46 Sudeste 0 1015.9 -- 48
2020-09-05 14:00:00 28.6 26 Sur 32 Sur 0 1016.4 -- 61
2020-09-05 13:00:00 28.3 17 Sudoeste 26 Sur 0 1017.1 -- 60
2020-09-05 12:00:00 29.3 12 Sur 22 Este 0 1017.3 -- 49
2020-09-05 11:00:00 27.6 6 Sur 17 Noroeste 0 1017.8 -- 50
2020-09-05 10:00:00 25.5 6 Noroeste 15 Noroeste 0 1017.7 -- 56
2020-09-05 09:00:00 23.1 9 Norte 18 Norte 0 1017.4 -- 67
2020-09-05 08:00:00 21.3 14 Noroeste 21 Noroeste 0 1017.1 -- 74
2020-09-05 07:00:00 20.6 6 Norte 9 Norte 0 1017 -- 82
2020-09-05 06:00:00 21.4 0 Calma 9 Sudoeste 0 1017.2 -- 77
2020-09-05 05:00:00 21.5 3 Oeste 13 Nordeste 0 1017.6 -- 77
2020-09-05 04:00:00 21.9 3 Sur 17 Este 0 1017.7 -- 78
2020-09-05 03:00:00 22.9 7 Sudeste 15 Nordeste 0 1018.1 -- 72
2020-09-05 02:00:00 23.8 10 Norte 26 Este 0 1018.5 -- 71
2020-09-05 01:00:00 24.2 17 Este 30 Este 0 1018.8 -- 71
2020-09-05 00:00:00 24.8 24 Este 41 Este 0 1018.9 -- 69
2020-09-04 23:00:00 25.1 27 Este -- -- -- 1018.5 -- 68
2020-09-04 22:00:00 25.7 35 Este -- -- -- 1017.9 -- 65
2020-09-04 21:00:00 25.7 30 Este -- -- -- 1017.3 -- 64
2020-09-04 20:00:00 27.3 40 Este 61 Este 0 1016.9 -- 55
2020-09-04 19:00:00 28.9 44 Este 63 Este 0 1016.6 -- 49
2020-09-04 18:00:00 29.9 47 Este 63 Este 0 1016.8 -- 49
2020-09-04 17:00:00 31.3 42 Este 61 Este 0 1017.2 -- 44
2020-09-04 16:00:00 32.1 43 Este 58 Este 0 1017.5 -- 39
2020-09-04 15:00:00 32.3 40 Este 59 Este 0 1018.1 -- 34
2020-09-04 14:00:00 32 41 Nordeste 59 Este 0 1018.5 -- 35
2020-09-04 13:00:00 31.2 40 Nordeste 55 Este 0 1019.3 -- 38
2020-09-04 12:00:00 30.1 37 Este 52 Este 0 1019.8 -- 40
2020-09-04 11:00:00 28.5 30 Nordeste 50 Nordeste 0 1020 -- 43
2020-09-04 10:00:00 26.9 27 Nordeste 50 Nordeste 0 1019.9 -- 48
2020-09-04 09:00:00 23.8 13 Norte 22 Noroeste 0 1020 -- 57
2020-09-04 08:00:00 21.7 11 Norte 17 Norte 0 1019.5 -- 67
2020-09-04 07:00:00 22 11 Norte 18 Norte 0 1018.9 -- 63
2020-09-04 06:00:00 21.6 12 Norte 18 Norte 0 1018.7 -- 68
2020-09-04 05:00:00 22.4 9 Norte 22 Norte 0 1018.7 -- 66
2020-09-04 04:00:00 23.6 8 Nordeste 18 Nordeste 0 1019 -- 53
2020-09-04 03:00:00 22.2 7 Norte 15 Nordeste 0 1019.3 -- 62
2020-09-04 02:00:00 22.7 5 Norte 13 Norte 0 1019.7 -- 65
2020-09-04 01:00:00 23.7 10 Nordeste 22 Este -- 1019.9 -- 66
2020-09-04 00:00:00 24.4 18 Nordeste 33 Nordeste 0 1020 -- 67
2020-09-03 23:00:00 -- -- -- -- -- -- -- -- --
2020-09-03 22:00:00 24.8 26 Nordeste 37 Nordeste 0 1019.4 -- 70
2020-09-03 21:00:00 26 29 Este -- -- -- 1018.7 -- 60
2020-09-03 20:00:00 28.4 38 Este 54 Este 0 1017.6 -- 38
2020-09-03 19:00:00 29.9 34 Este 48 Este 0 1017.4 -- 42
2020-09-03 18:00:00 30.7 31 Este 46 Este 0 1017.4 -- 41
2020-09-03 17:00:00 31.2 29 Este 45 Este 0 1017.5 -- 41
2020-09-03 16:00:00 31 33 Este 48 Este 0 1017.6 -- 44
2020-09-03 15:00:00 31.2 33 Este 48 Este 0 1018.2 -- 43
2020-09-03 14:00:00 31.4 27 Este 46 Este 0 1018.4 -- 41
2020-09-03 13:00:00 30.8 26 Este 41 Este 0 1018.5 -- 39
2020-09-03 12:00:00 30 24 Este 37 Nordeste 0 1018.5 -- 43
2020-09-03 11:00:00 28.4 21 Este 35 Nordeste 0 1018.4 -- 50
2020-09-03 10:00:00 25.8 10 Norte 24 Norte 0 1018 -- 51
2020-09-03 09:00:00 23.6 15 Norte 24 Norte 0 1017.5 -- 58
2020-09-03 08:00:00 22.1 15 Norte -- -- -- 1017.1 -- 67
2020-09-03 07:00:00 21.8 19 Noroeste 28 Noroeste 0 1016.4 -- 70
2020-09-03 06:00:00 21.7 18 Noroeste 26 Norte 0 1016.1 -- 70
2020-09-03 05:00:00 21.9 10 Noroeste 17 Noroeste 0 1016 -- 70
2020-09-03 04:00:00 21.9 10 Norte 13 Noroeste 0 1016.1 -- 74
2020-09-03 03:00:00 23.3 9 Norte 17 Norte 0 1016.1 -- 70
2020-09-03 02:00:00 23.7 9 Norte 18 Nordeste 0 1016.3 -- 69
2020-09-03 01:00:00 24.2 9 Nordeste 17 Nordeste 0 1016.3 -- 65
2020-09-03 00:00:00 24.2 13 Nordeste 18 Nordeste 0 1016.2 -- 69
2020-09-02 23:00:00 24.1 12 Este 17 Este 0 1015.7 -- 70
2020-09-02 22:00:00 24.5 8 Este 11 Este 0 1015.2 -- 66
2020-09-02 21:00:00 24.6 7 Sur -- -- -- 1014.4 -- 79
2020-09-02 20:00:00 25.8 12 Sur 21 Sur 0 1013.8 -- 72
2020-09-02 19:00:00 26.5 14 Sur 26 Sur 0 1013.3 -- 73
2020-09-02 18:00:00 27.4 15 Sur 28 Sur 0 1013.2 -- 68
2020-09-02 17:00:00 28 18 Sur 28 Sur 0 1012.7 -- 65
2020-09-02 16:00:00 28.2 18 Sudoeste 26 Sur 0 1012.9 -- 63
2020-09-02 15:00:00 28.3 18 Sur 26 Sur 0 1013.1 -- 64
2020-09-02 14:00:00 28.3 15 Sur 21 Sur 0 1013.5 -- 62
2020-09-02 13:00:00 26.6 14 Sudoeste 18 Sudoeste 0 1013.3 -- 65
2020-09-02 12:00:00 25.9 14 Sur 18 Sur 0 1013.4 -- 62
2020-09-02 11:00:00 26.6 10 Sur 15 Este 0 1012.8 -- 54
2020-09-02 10:00:00 26.1 8 Este 17 Nordeste 0 1012.1 -- 55
2020-09-02 09:00:00 22.8 9 Nordeste 13 Norte 0 1011.6 -- 68
2020-09-02 08:00:00 21.5 8 Nordeste 18 Norte 0 1011.1 -- 72
2020-09-02 07:00:00 21 10 Nordeste 22 Noroeste 0 1010.6 -- 74
2020-09-02 06:00:00 21.8 15 Noroeste 24 Noroeste 0 1010.3 -- 73
2020-09-02 05:00:00 21.7 14 Noroeste 21 Noroeste 0 1010.5 -- 74
2020-09-02 04:00:00 21.6 12 Noroeste 17 Norte 0 1010.7 -- 73
2020-09-02 03:00:00 21.5 8 Norte -- -- 0 1010.9 -- 74
2020-09-02 02:00:00 21.4 8 Norte 9 Norte 0 1011.2 -- 77
2020-09-02 01:00:00 21.7 6 Norte 8 Norte 0 1011 -- 77
2020-09-02 00:00:00 22 4 Noroeste 8 Noroeste 0 1010.7 -- 79
2020-09-01 23:00:00 22.6 5 Noroeste 11 Oeste 0 1010.4 -- 78
2020-09-01 22:00:00 22.9 5 Oeste 11 Sudoeste 0 1010.1 -- 78
2020-09-01 21:00:00 23.6 6 Sudoeste 9 Sudoeste 0 1009.5 -- 76
2020-09-01 20:00:00 24.8 5 Sur -- -- -- 1009 -- 70
2020-09-01 19:00:00 25.4 16 Sudoeste 21 Sudoeste 0 1009.5 -- 70
2020-09-01 18:00:00 25 11 Sudeste 17 Sur 0 1008.8 -- 75
2020-09-01 17:00:00 25.2 12 Sur 22 Sur 0 1009.4 -- 72
2020-09-01 16:00:00 25.9 13 Sur 22 Sur 0 1009.9 -- 70
2020-09-01 15:00:00 27 14 Sur 26 Sudeste 0 1010.3 -- 63
2020-09-01 14:00:00 27.3 14 Sur 21 Sur 0 1011.1 -- 64
2020-09-01 13:00:00 26.8 15 Sur 22 Sur 0 1011.2 -- 66
2020-09-01 12:00:00 28.9 13 Sudeste 26 Sur 0 1011.2 -- 35
2020-09-01 11:00:00 28.2 12 Este 22 Este 0 1011.5 -- 43
2020-09-01 10:00:00 25.9 9 Nordeste 13 Norte 0 1011.4 -- 53
2020-09-01 09:00:00 22.3 10 Norte 18 Norte 0 1011.8 -- 63
2020-09-01 08:00:00 20.7 9 Noroeste -- -- 0 1011.9 -- 70
2020-09-01 07:00:00 20.6 4 Norte 13 Norte 0 1011.6 -- 68
2020-09-01 06:00:00 20 9 Nordeste 22 Norte 0 1011.4 -- 67
2020-09-01 05:00:00 21.7 12 Norte 21 Noroeste 0 1011.4 -- 65
2020-09-01 04:00:00 22.1 9 Norte 21 Norte 0 1011.9 -- 64
2020-09-01 03:00:00 22.5 9 Norte 21 Noroeste 0 1012.8 -- 63
2020-09-01 02:00:00 22.5 9 Norte 13 Norte 0 1013.3 -- 64
2020-09-01 01:00:00 23.6 10 Norte 18 Nordeste 0 1013.9 -- 52
2020-09-01 00:00:00 23.8 11 Nordeste 17 Este 0 1014 -- 53
2020-08-31 23:00:00 24.1 12 Nordeste 32 Nordeste 0 1014.1 -- 63
2020-08-31 22:00:00 24.6 -- -- 33 Este 0 -- -- 63
2020-08-31 21:00:00 25.6 24 Este -- -- -- 1012.9 -- 56
2020-08-31 20:00:00 27.3 19 Este 32 Este 0 1012.7 -- 49
2020-08-31 19:00:00 29 19 Este 32 Este 0 1013 -- 45
2020-08-31 18:00:00 29.4 23 Este 42 Sudeste 0 1013.2 -- 43
2020-08-31 17:00:00 29.5 25 Este 45 Sudeste 0 1013.6 -- 43
2020-08-31 16:00:00 29.9 26 Este 46 Sudeste 0 1014.1 -- 44
2020-08-31 15:00:00 30.5 28 Este 46 Este 0 1014.7 -- 42
2020-08-31 14:00:00 30.4 30 Este 48 Este 0 1015 -- 42
2020-08-31 13:00:00 30.1 24 Este 41 Este 0 1015.3 -- 40
2020-08-31 12:00:00 29.3 24 Este 37 Este 0 1015.7 -- 42
2020-08-31 11:00:00 27.9 24 Nordeste 39 Nordeste 0 1015.8 -- 46
2020-08-31 10:00:00 26 13 Este 28 Este 0 1015.7 -- 54
2020-08-31 09:00:00 22.6 10 Norte 24 Noroeste 0 1015.1 -- 65
2020-08-31 08:00:00 21.2 15 Norte 24 Norte 0 1014.8 -- 72
2020-08-31 07:00:00 20.5 11 Norte 18 Norte 0 1014.2 -- 76
2020-08-31 06:00:00 21.6 8 Norte 18 Norte 0 1013.7 -- 73
2020-08-31 05:00:00 22.3 13 Norte 24 Norte 0 1013.8 -- 72
2020-08-31 04:00:00 22.4 8 Norte 17 Nordeste 0 1013.5 -- 70
2020-08-31 03:00:00 22.7 10 Norte 15 Norte 0 1013.5 -- 69
2020-08-31 02:00:00 23.2 9 Norte 22 Nordeste 0 1013.6 -- 65
2020-08-31 01:00:00 23.5 14 Este 18 Nordeste 0 1013.4 -- 68
2020-08-31 00:00:00 23.9 14 Nordeste 21 Nordeste 0 1013 -- 67
2020-08-30 23:00:00 24.2 17 Nordeste 30 Este 0 1012.4 -- 70
2020-08-30 22:00:00 24.4 19 Este 33 Este 0 1011.5 -- 70
2020-08-30 21:00:00 25.1 22 Este 33 Este 0 1010.1 -- 65
2020-08-30 20:00:00 26.7 22 Este 37 Este 0 1009.1 -- 57
2020-08-30 19:00:00 28.2 26 Este 37 Este 0 1008.4 -- 51
2020-08-30 18:00:00 29.4 25 Este 45 Este 0 1008.1 -- 45
2020-08-30 17:00:00 29.5 27 Este 42 Este 0 1008.1 -- 46
2020-08-30 16:00:00 29.8 24 Este 37 Este 0 1008.3 -- 44
2020-08-30 15:00:00 31 21 Este 33 Este 0 1008.5 -- 33
2020-08-30 14:00:00 29.7 24 Este 33 Este 0 1008.7 -- 41
2020-08-30 13:00:00 28.5 23 Este 33 Sudeste 0 1009 -- 45
2020-08-30 12:00:00 28.9 17 Este 32 Nordeste 0 1009.5 -- 38
2020-08-30 11:00:00 28.4 19 Este 30 Este 0 1009.2 -- 31
2020-08-30 10:00:00 25.6 16 Noroeste 28 Noroeste 0 1009 -- 41
2020-08-30 09:00:00 23.3 18 Noroeste 28 Norte 0 1008.7 -- 49
2020-08-30 08:00:00 21.5 15 Norte 21 Norte 0 1008.3 -- 57
2020-08-30 07:00:00 22.1 12 Norte 17 Nordeste 0 1007.9 -- 71
2020-08-30 06:00:00 22.5 10 Nordeste 18 Nordeste 0 1007.6 -- 81
2020-08-30 05:00:00 22.9 12 Nordeste 18 Nordeste 0 1007.2 -- 86
2020-08-30 04:00:00 23.2 14 Nordeste 21 Nordeste 0 1007.1 -- 84
2020-08-30 03:00:00 23.4 12 Nordeste 18 Este 0 1006.8 -- 83
2020-08-30 02:00:00 23.8 15 Este 21 Este 0 1006.5 -- 77
2020-08-30 01:00:00 23.2 13 Nordeste 22 Este 0 1005.8 -- 59
2020-08-30 00:00:00 21.9 14 Este 18 Este 0 1004.9 -- 61
2020-08-29 23:00:00 21.5 13 Este 26 Este 0 1004.1 -- 66
2020-08-29 22:00:00 21.7 7 Este -- -- -- 1003 -- 63
2020-08-29 21:00:00 22.9 -- -- 32 Sudoeste 0 -- -- 58
2020-08-29 20:00:00 23.4 24 Sudoeste 50 Sudoeste 0 1000.1 -- 67
2020-08-29 19:00:00 25.1 35 Sudoeste 61 Oeste 0 999.1 -- 56
2020-08-29 18:00:00 25 44 Sudoeste 68 Sudoeste 0 998.3 -- 58
2020-08-29 17:00:00 26.3 53 Sudoeste 72 Sudoeste 0 998 -- 51
2020-08-29 16:00:00 26.5 58 Sudoeste 74 Sudoeste 0 998.7 -- 49
2020-08-29 15:00:00 25.9 53 Sudoeste 72 Sudoeste 0 999.3 -- 55
2020-08-29 14:00:00 26.5 49 Oeste 68 Sudoeste 0 999.9 -- 49
2020-08-29 13:00:00 25.9 42 Sudoeste 59 Sudoeste 0 1000.9 -- 54
2020-08-29 12:00:00 25.5 47 Sudoeste 63 Sudoeste 0 1000.9 -- 56
2020-08-29 11:00:00 25.4 39 Sudoeste 54 Oeste 0 1000.9 -- 59
2020-08-29 10:00:00 23.9 26 Oeste 39 Oeste 0 1000.8 -- 70
2020-08-29 09:00:00 23.5 21 Oeste 33 Oeste 0 1000.7 -- 75
2020-08-29 08:00:00 22.1 5 Sur 11 Nordeste 0 1000.3 -- 89
2020-08-29 07:00:00 22.2 8 Nordeste 11 Nordeste 0 999.8 -- 88
2020-08-29 06:00:00 23 5 Sudoeste 11 Oeste 0 999.6 -- 89
2020-08-29 05:00:00 23 4 Noroeste 13 Nordeste 0 999.5 -- 88
2020-08-29 04:00:00 23.4 12 Nordeste 17 Nordeste 0 999.2 -- 88
2020-08-29 03:00:00 23.5 10 Este 13 Nordeste 0 999.6 -- 87
2020-08-29 02:00:00 23.9 7 Nordeste 15 Nordeste 0 1000.3 -- 85
2020-08-29 01:00:00 24.4 0 Calma 9 Sudoeste 0 1000.8 -- 84
2020-08-29 00:00:00 24.9 4 Sur 11 Oeste 0 1001.1 -- 81
2020-08-28 23:00:00 25.6 7 Sudoeste 13 Sudoeste 0 1001.4 -- 80
2020-08-28 22:00:00 26.1 4 Noroeste 26 Oeste 0 1001.1 -- 74
2020-08-28 21:00:00 27.1 15 Sudoeste 30 Oeste 0 1000.4 -- 69
2020-08-28 20:00:00 28.5 17 Oeste 45 Sudoeste 0 1000.1 -- 61
2020-08-28 19:00:00 29.2 29 Sudoeste 46 Oeste 0 1000 -- 63
2020-08-28 18:00:00 29.7 29 Sudoeste 42 Sudoeste 0 1000.6 -- 62
2020-08-28 17:00:00 29.5 15 Sur 37 Sudoeste 0 1001.8 -- 67
2020-08-28 16:00:00 28.9 27 Sudoeste 37 Sudoeste 0 1003 -- 69
2020-08-28 15:00:00 28.9 23 Sudoeste 32 Sudoeste 0 1004.1 -- 70
2020-08-28 14:00:00 28.8 21 Sudoeste 28 Sudoeste 0 1005 -- 72
2020-08-28 13:00:00 28.1 22 Sudoeste 28 Sudoeste 0 1005.8 -- 74
2020-08-28 12:00:00 27.8 18 Sudoeste 24 Sudoeste 0 1006.6 -- 73
2020-08-28 11:00:00 26.8 14 Sudoeste 21 Sudoeste 0 1006.8 -- 77
2020-08-28 10:00:00 25.7 8 Sudoeste 13 Sudoeste 0 1006.7 -- 79
2020-08-28 09:00:00 24.3 6 Oeste 13 Oeste 0 1007 -- 86
2020-08-28 08:00:00 23.3 5 Noroeste 9 Oeste 0 1007 -- 91
2020-08-28 07:00:00 22.9 5 Noroeste 11 Norte 0 1007 -- 89
2020-08-28 06:00:00 23.4 5 Noroeste 9 Noroeste 0 1007.4 -- 92
2020-08-28 05:00:00 23.8 3 Oeste 9 Norte 0 1007.6 -- 90
2020-08-28 04:00:00 23.7 5 Norte 11 Nordeste 0 1008.3 -- 87
2020-08-28 03:00:00 24 9 Nordeste 13 Nordeste 0 1008.9 -- 87
2020-08-28 02:00:00 24.2 9 Nordeste 11 Nordeste 0 1009.5 -- 86
2020-08-28 01:00:00 24.8 3 Este 9 Sudoeste 0 1010.1 -- 86
2020-08-28 00:00:00 25.7 6 Sudoeste 9 Sudoeste 0 1010.5 -- 85
2020-08-27 23:00:00 26.1 3 Sur 11 Oeste 0 1010.8 -- 81
2020-08-27 22:00:00 26.7 8 Oeste 15 Sudoeste 0 1010.8 -- 83
2020-08-27 21:00:00 27.1 8 Sudoeste 17 Sudoeste 0 1010.7 -- 76
2020-08-27 20:00:00 27.8 12 Sudoeste 15 Sudoeste 0 1010.7 -- 81
2020-08-27 19:00:00 28.9 11 Sur 17 Sudoeste 0 1010.9 -- 77
2020-08-27 18:00:00 29.1 11 Sur 17 Sudoeste 0 1011.4 -- 77
2020-08-27 17:00:00 29.5 13 Sur 18 Sudoeste 0 1012.2 -- 76
2020-08-27 16:00:00 29.5 14 Sudoeste 22 Sudoeste 0 1013 -- 73
2020-08-27 15:00:00 29.3 16 Sudoeste 22 Sudoeste 0 1013.8 -- 74
2020-08-27 14:00:00 29.2 14 Sudoeste 18 Sudoeste 0 1014.2 -- 74
2020-08-27 13:00:00 29.2 12 Sur 18 Sur 0 1014.8 -- 73
2020-08-27 12:00:00 28.2 11 Sur 17 Sudoeste 0 1015.1 -- 77
2020-08-27 11:00:00 27.5 12 Sudoeste 17 Sudoeste 0 1015 -- 77
2020-08-27 10:00:00 27.2 9 Sur 11 Sudoeste 0 1014.9 -- 79
2020-08-27 09:00:00 25.8 3 Norte 9 Norte 0 1014.8 -- 73
2020-08-27 08:00:00 23 7 Norte 11 Norte 0 1014.7 -- 75
2020-08-27 07:00:00 23 0 Calma 8 Norte 0 1014.5 -- 83
2020-08-27 06:00:00 23.5 6 Norte 9 Norte 0 1014.4 -- 83
2020-08-27 05:00:00 24.1 0 Calma 11 Este 0 1014.8 -- 88
2020-08-27 04:00:00 24 8 Nordeste 9 Este 0 1014.9 -- 86
2020-08-27 03:00:00 24.9 3 Noroeste 9 Noroeste 0 1015.2 -- 86
2020-08-27 02:00:00 25.2 -- -- -- -- 0 1015.7 -- 87
2020-08-27 01:00:00 25.8 0 Calma 4 Norte 0 1016.1 -- 84
2020-08-27 00:00:00 26.1 0 Calma 4 Sur 0 1016.1 -- 83
2020-08-26 23:00:00 26.3 0 Calma 8 Sudoeste 0 1016 -- 82
2020-08-26 22:00:00 26.6 6 Sudoeste 11 Sudoeste 0 1015.5 -- 84
2020-08-26 21:00:00 26.7 7 Sudoeste 11 Sudoeste 0 1014.5 -- 84
2020-08-26 20:00:00 27.5 6 Sur 15 Sur 0 1014.2 -- 79
2020-08-26 19:00:00 28.7 12 Sur 17 Sur 0 1014.4 -- 73
2020-08-26 18:00:00 29.3 13 Sur 18 Sur 0 1014.5 -- 70
2020-08-26 17:00:00 30 13 Sudoeste 21 Sur 0 1014.6 -- 68
2020-08-26 16:00:00 29.1 14 Sudoeste 21 Sudoeste 0 1014.9 -- 72
2020-08-26 15:00:00 29.9 14 Sur 21 Sur 0 1015 -- 67
2020-08-26 14:00:00 29.3 15 Sudoeste 22 Sudoeste 0 1015.5 -- 69
2020-08-26 13:00:00 29 15 Sudoeste 21 Sur 0 1015.8 -- 71
2020-08-26 12:00:00 28.2 11 Sur 15 Sur 0 1016.1 -- 74
2020-08-26 11:00:00 27.4 9 Sur 13 Sur 0 1016.1 -- 77
2020-08-26 10:00:00 26.9 8 Sur 11 Sudoeste 0 1015.9 -- 80
2020-08-26 09:00:00 24.8 3 Sudoeste 13 Norte 0 1015.3 -- 78
2020-08-26 08:00:00 22.4 7 Norte 9 Norte 0 1014.6 -- 90
2020-08-26 07:00:00 22.4 2 Noroeste 5 Nordeste 0 1014.1 -- 92
2020-08-26 06:00:00 23.2 5 Norte 13 Nordeste 0 1013.7 -- 92
2020-08-26 05:00:00 23.9 10 Nordeste 13 Nordeste 0 1014 -- 92
2020-08-26 04:00:00 24.1 -- -- -- -- 0 1014.2 -- 91
2020-08-26 03:00:00 24.5 5 Norte 5 Nordeste 0 1014.5 -- 89
2020-08-26 02:00:00 24.8 0 Calma 5 Este 0 1014.7 -- 88
2020-08-26 01:00:00 25.1 3 Este 5 Este 0 1014.6 -- 87
2020-08-26 00:00:00 25.8 3 Sudoeste 8 Sudoeste 0 1014.3 -- 86
2020-08-25 23:00:00 26 3 Noroeste 9 Sudoeste 0 1014.2 -- 87
2020-08-25 22:00:00 26.2 9 Oeste 17 Sudoeste 0 1013.5 -- 87
2020-08-25 21:00:00 26.7 13 Sudoeste 17 Sudoeste 0 1012.6 -- 86
2020-08-25 20:00:00 27.7 13 Sudoeste 17 Sudoeste 0 1011.8 -- 81
2020-08-25 19:00:00 28.6 12 Sudoeste 17 Sudoeste 0 1011.8 -- 77
2020-08-25 18:00:00 29.4 12 Sur 21 Sudoeste 0 1012.1 -- 73
2020-08-25 17:00:00 29.7 15 Sudoeste 26 Sudoeste 0 1012.4 -- 73
2020-08-25 16:00:00 30.6 18 Sur 26 Sur 0 1012.8 -- 70
2020-08-25 15:00:00 30.6 17 Sur 26 Sur 0 1013.2 -- 69
2020-08-25 14:00:00 30.7 17 Sur 24 Sur 0 1013.5 -- 66
2020-08-25 13:00:00 30 17 Sur 24 Sudoeste 0 1013.5 -- 69
2020-08-25 12:00:00 29.9 15 Sur 24 Este 0 1013.3 -- 64
2020-08-25 11:00:00 30.4 5 Este 17 Este 0 1013.3 -- 57
2020-08-25 10:00:00 28.2 10 Nordeste 18 Nordeste 0 1013.4 -- 67
2020-08-25 09:00:00 26.3 6 Nordeste 9 Nordeste 0 1013.4 -- 76
2020-08-25 08:00:00 24.2 5 Norte 9 Norte 0 1012.9 -- 78
2020-08-25 07:00:00 24.2 4 Este 17 Nordeste 0 1012.3 -- 81
2020-08-25 06:00:00 24.9 10 Norte 13 Norte 0 1012.1 -- 77
2020-08-25 05:00:00 24.3 2 Sur 5 Sur 0 1012.5 -- 81
2020-08-25 04:00:00 25.1 0 Calma 9 Este 0 1012.7 -- 78
2020-08-25 03:00:00 25.1 7 Nordeste 9 Este 0 1012.7 -- 79
2020-08-25 02:00:00 26 6 Nordeste 11 Este 0 1013.1 -- 76
2020-08-25 01:00:00 26 9 Nordeste 13 Nordeste 0 1013.4 -- 77
2020-08-25 00:00:00 26.8 11 Este 26 Este 0 1013.3 -- 76
2020-08-24 23:00:00 27.2 20 Este 28 Este 0 1013.2 -- 75
2020-08-24 22:00:00 27.7 15 Este 26 Este 0 1012.7 -- 70
2020-08-24 21:00:00 28.3 15 Este 28 Sudeste 0 1011.9 -- 68
2020-08-24 20:00:00 30.1 19 Este 32 Este 0 1011.6 -- 60
2020-08-24 19:00:00 31.8 18 Sudeste 33 Sudeste 0 1011.4 -- 56
2020-08-24 18:00:00 33.2 17 Este 39 Sur 0 1011.6 -- 50
2020-08-24 17:00:00 33.4 18 Sudeste 39 Sudeste 0 1011.6 -- 49
2020-08-24 16:00:00 31.9 21 Sur 37 Sudeste 0 1012.2 -- 60
2020-08-24 15:00:00 34.1 21 Sudeste 39 Sudeste 0 1012.5 -- 49
2020-08-24 14:00:00 34.1 24 Sudeste 41 Sudeste 0 1012.8 -- 48
2020-08-24 13:00:00 33.5 22 Este 37 Este 0 1013.3 -- 50
2020-08-24 12:00:00 32.6 26 Este 37 Este 0 1013.5 -- 51
2020-08-24 11:00:00 31.3 22 Este 35 Este 0 1013.6 -- 53
2020-08-24 10:00:00 30.4 23 Este 32 Nordeste 0 1013.6 -- 57
2020-08-24 09:00:00 27.1 6 Norte 17 Norte 0 1013.7 -- 72
2020-08-24 08:00:00 25.6 9 Norte 17 Norte 0 1013.4 -- 75
2020-08-24 07:00:00 25.4 11 Nordeste 15 Nordeste 0 1013.2 -- 82
2020-08-24 06:00:00 24.7 6 Nordeste 9 Nordeste 0 1013.2 -- 81
2020-08-24 05:00:00 25.2 4 Este 9 Sudeste 0 1013 -- 78
2020-08-24 04:00:00 26.1 5 Este 17 Noroeste 0 1013 -- 76
2020-08-24 03:00:00 26.7 3 Este 13 Este 0 1013.2 -- 74
2020-08-24 02:00:00 26.7 9 Este 18 Este 0 1013.6 -- 80
2020-08-24 01:00:00 27.2 11 Este 21 Este 0 1014.1 -- 76
2020-08-24 00:00:00 27.4 12 Este 24 Este 0 1014.2 -- 73
2020-08-23 23:00:00 27.7 17 Este 30 Este 0 1014.2 -- 71
2020-08-23 22:00:00 27.9 15 Este 28 Este 0 1013.8 -- 71
2020-08-23 21:00:00 27.8 5 Oeste 26 Oeste 0 1013.2 -- 77
2020-08-23 20:00:00 29 17 Oeste 28 Sudoeste 0 1012.8 -- 74
2020-08-23 19:00:00 29.4 22 Sudoeste 28 Sudoeste 0 1012.9 -- 72
2020-08-23 18:00:00 30.6 18 Sudoeste 30 Sudoeste 0 1013.1 -- 66
2020-08-23 17:00:00 33.9 10 Oeste 32 Este 0 1013.4 -- 54
2020-08-23 16:00:00 35 21 Este 35 Este 0 1014 -- 48
2020-08-23 15:00:00 31.6 14 Sudoeste 30 Sudoeste 0 1014.7 -- 62
2020-08-23 14:00:00 34 18 Este 32 Este 0 1015.2 -- 51
2020-08-23 13:00:00 30.9 12 Sudeste 32 Sudoeste 0 1016 -- 63
2020-08-23 12:00:00 29.6 17 Sudoeste 28 Sudeste 0 1016.1 -- 72
2020-08-23 11:00:00 31.6 21 Sudeste 35 Este 0 1016 -- 58
2020-08-23 10:00:00 30 12 Nordeste 22 Este 0 1015.6 -- 63
2020-08-23 09:00:00 27 8 Noroeste -- -- -- 1015.4 -- 72
2020-08-23 08:00:00 25 -- -- -- -- -- -- -- 70
2020-08-23 07:00:00 24.7 13 Norte 15 Norte 0 1015.2 -- 74
2020-08-23 06:00:00 24.9 8 Noroeste 9 Noroeste 0 1015.3 -- 81
2020-08-23 05:00:00 24.8 5 Oeste 9 Oeste 0 1015.9 -- 82
2020-08-23 04:00:00 25.4 3 Este 13 Nordeste 0 1015.4 -- 68
2020-08-23 03:00:00 25.7 8 Nordeste 11 Nordeste 0 1015.4 -- 63
2020-08-23 02:00:00 26 5 Nordeste 9 Nordeste 0 1015.5 -- 58
2020-08-23 01:00:00 25.2 3 Noroeste 8 Nordeste 0 1015.6 -- 65
2020-08-23 00:00:00 25.1 0 Calma -- -- 0 1016 -- 60
2020-08-22 23:00:00 26.1 5 Norte -- -- 0 1016 -- 70
2020-08-22 22:00:00 26 0 Calma 8 Sur 0 1015.6 -- 75
2020-08-22 21:00:00 26.7 4 Sudoeste 9 Sudoeste 0 1014.8 -- 77
2020-08-22 20:00:00 27.7 6 Sur 13 Sudoeste 0 1014.4 -- 76
2020-08-22 19:00:00 27.7 9 Sur 15 Sudoeste 0 1014.1 -- 78
2020-08-22 18:00:00 28.6 10 Sur 17 Sur 0 1014.5 -- 75
2020-08-22 17:00:00 28.8 12 Sudoeste 17 Sudoeste 0 1014.9 -- 75
2020-08-22 16:00:00 29.2 10 Sur 15 Sur 0 1015.3 -- 67
2020-08-22 15:00:00 28.6 9 Sur 17 Sur 0 1015.8 -- 69
2020-08-22 14:00:00 27.9 12 Sur 17 Sur 0 1015.9 -- 77
2020-08-22 13:00:00 27.3 14 Sudoeste 18 Sudoeste 0 1016.1 -- 78
2020-08-22 12:00:00 26.7 12 Sudoeste 17 Sudoeste 0 1016.2 -- 80
2020-08-22 11:00:00 26.3 9 Sudoeste 13 Sur 0 1015.6 -- 79
2020-08-22 10:00:00 26.4 10 Sur 13 Sur 0 1014.8 -- 68
2020-08-22 09:00:00 25.1 5 Sudeste 15 Nordeste 0 1014.4 -- 61
2020-08-22 08:00:00 21.3 12 Nordeste 17 Este 0 1013.7 -- 90
2020-08-22 07:00:00 22.4 4 Noroeste 11 Norte 0 1013.7 -- 89
2020-08-22 06:00:00 22.1 4 Norte 13 Norte 0 1013.8 -- 76
2020-08-22 05:00:00 21.3 9 Este 11 Este 0 1013.7 -- 84
2020-08-22 04:00:00 23 8 Norte 15 Noroeste 0 1012.9 -- 67
2020-08-22 03:00:00 22.6 4 Noroeste 8 Norte 0 1013.6 -- 84
2020-08-22 02:00:00 22.8 0 Calma 5 Sur 0 1014.3 -- 88
2020-08-22 01:00:00 23.5 0 Calma -- -- 0 1014.3 -- 89
2020-08-22 00:00:00 23.9 4 Este 9 Sur 0 1013.8 -- 89
2020-08-21 23:00:00 24.5 4 Sur 9 Sur 0 1013.3 -- 86
2020-08-21 22:00:00 25 5 Sur 8 Sudoeste 0 1012.3 -- 74
2020-08-21 21:00:00 25.8 7 Sur 13 Sudoeste 0 1011.6 -- 65
2020-08-21 20:00:00 27.1 10 Sur 13 Sudoeste 0 1011.3 -- 63
2020-08-21 19:00:00 27.6 9 Sudoeste 17 Sudoeste 0 1011.6 -- 71
2020-08-21 18:00:00 28 10 Sur 17 Sudoeste 0 1011.5 -- 74
2020-08-21 17:00:00 27.9 13 Sur 17 Sur 0 1011.7 -- 74
2020-08-21 16:00:00 28.6 11 Sur 18 Sudoeste 0 1011.9 -- 70
2020-08-21 15:00:00 28.4 14 Sudoeste 21 Sur 0 1012.4 -- 72
2020-08-21 14:00:00 28.1 12 Sur 21 Sur 0 1012.2 -- 73
2020-08-21 13:00:00 28.2 13 Sur 18 Sur 0 1012.3 -- 70
2020-08-21 12:00:00 27.7 11 Sur 17 Sur 0 1012.3 -- 69
2020-08-21 11:00:00 27 8 Sudoeste 15 Sur 0 1012.1 -- 71
2020-08-21 10:00:00 26.8 11 Sur 17 Sudeste 0 1011.9 -- 70
2020-08-21 09:00:00 26.2 10 Este 13 Este 0 1010.9 -- 61
2020-08-21 08:00:00 24.4 9 Este 15 Este 0 1009.9 -- 67
2020-08-21 07:00:00 24.2 11 Nordeste 15 Este 0 1009 -- 64
2020-08-21 06:00:00 24.9 8 Sudeste 21 Oeste 0 1008.5 -- 70
2020-08-21 05:00:00 27.6 19 Noroeste 30 Noroeste 0 1007.9 -- 34
2020-08-21 04:00:00 26.2 10 Noroeste 18 Noroeste 0 1008 -- 38
2020-08-21 03:00:00 24.2 7 Norte 9 Norte 0 1008.9 -- 50
2020-08-21 02:00:00 24.4 4 Norte 5 Norte 0 1009.1 -- 47
2020-08-21 01:00:00 25.9 4 Nordeste 5 Norte 0 1009.1 -- 45
2020-08-21 00:00:00 25.8 2 Oeste 8 Norte 0 1008.7 -- 48
2020-08-20 23:00:00 25.9 4 Norte -- -- -- 1008.4 -- 65
2020-08-20 22:00:00 26.6 3 Sur 5 Sur 0 1007.6 -- 78
2020-08-20 21:00:00 -- -- -- -- -- -- -- -- --
2020-08-20 20:00:00 28.9 6 Sur 15 Sudoeste 0 1006 -- 53
2020-08-20 19:00:00 29.5 13 Sudoeste 17 Sudoeste 0 1006 -- 49
2020-08-20 18:00:00 29.4 10 Sudoeste 15 Sudoeste 0 1005.9 -- 58
2020-08-20 17:00:00 30 10 Sudoeste 15 Sudoeste 0 1006.2 -- 52
2020-08-20 16:00:00 29 12 Sudoeste 21 Sudoeste 0 1007.1 -- 62
2020-08-20 15:00:00 28.6 15 Sudoeste 21 Sur 0 1007.6 -- 67
2020-08-20 14:00:00 28.5 13 Sudoeste 18 Sudoeste 0 1007.6 -- 65
2020-08-20 13:00:00 27.4 12 Sudoeste 17 Sur 0 1008.2 -- 76
2020-08-20 12:00:00 27.3 11 Sudoeste 15 Sur 0 1008.3 -- 76
2020-08-20 11:00:00 26 7 Sur 15 Sudeste 0 1007.9 -- 83
2020-08-20 10:00:00 26 10 Sur 13 Sur 0 1007.2 -- 79
2020-08-20 09:00:00 25.1 3 Este 9 Noroeste 0 1006.7 -- 72
2020-08-20 08:00:00 23 6 Nordeste 11 Norte 0 1005.9 -- 75
2020-08-20 07:00:00 22.9 5 Sudoeste 9 Sur 0 1005.4 -- 81
2020-08-20 06:00:00 23.2 6 Norte 11 Nordeste 0 1005.5 -- 75
2020-08-20 05:00:00 23.4 10 Nordeste 13 Nordeste 0 1005.5 -- 84
2020-08-20 04:00:00 23.9 5 Este 8 Este 0 1005.7 -- 88
2020-08-20 03:00:00 -- -- -- 8 Oeste 0 -- -- --
2020-08-20 02:00:00 24.6 2 Noroeste 8 Norte 0 1006.7 -- 87
2020-08-20 01:00:00 25 0 Calma 8 Norte 0 1006.9 -- 86
2020-08-20 00:00:00 25 0 Calma 5 Norte 0 1006.9 -- 86
2020-08-19 23:00:00 25.7 5 Sudoeste 15 Oeste 0 1006.7 -- 88
2020-08-19 22:00:00 25.9 10 Oeste 13 Oeste 0 1006.6 -- 87
2020-08-19 21:00:00 26.3 6 Sudoeste 15 Sudoeste 0 1005.7 -- 83
2020-08-19 20:00:00 27.7 14 Sudoeste 22 Oeste 0 1005.8 -- 76
2020-08-19 19:00:00 28.5 17 Sudoeste 26 Sudoeste 0 1005.8 -- 71
2020-08-19 18:00:00 29.4 18 Sudoeste 26 Sudoeste 0 1005.9 -- 64
2020-08-19 17:00:00 29.3 20 Sudoeste 24 Sudoeste 0 1006.5 -- 71
2020-08-19 16:00:00 29.1 17 Sudoeste 24 Sudoeste 0 1007.1 -- 74
2020-08-19 15:00:00 28.9 17 Sudoeste 24 Sudoeste 0 1007.8 -- 75
2020-08-19 14:00:00 30 16 Sur 24 Sur 0 1008.4 -- 70
2020-08-19 13:00:00 29.5 17 Sur 24 Sur 0 1009 -- 70
2020-08-19 12:00:00 28.8 16 Sudoeste 21 Sudoeste 0 1009 -- 60
2020-08-19 11:00:00 29.1 9 Sudoeste 15 Sudoeste 0 1008.8 -- 39
2020-08-19 10:00:00 28.6 8 Sur 11 Sur 0 1008.9 -- 42
2020-08-19 09:00:00 25.9 7 Norte 11 Norte 0 1008.9 -- 38
2020-08-19 08:00:00 21.7 7 Este 13 Norte 0 1008.6 -- 45
2020-08-19 07:00:00 21.5 8 Noroeste 9 Noroeste 0 1008.4 -- 54
2020-08-19 06:00:00 23.6 8 Nordeste 13 Norte 0 1008.7 -- 44
2020-08-19 05:00:00 23.1 4 Norte 8 Norte 0 1009.1 -- 46
2020-08-19 04:00:00 23 2 Oeste 5 Noroeste 0 1009.1 -- 49
2020-08-19 03:00:00 23.5 3 Norte 8 Nordeste 0 1009.7 -- 45
2020-08-19 02:00:00 24.7 0 Calma 5 Nordeste 0 1010.1 -- 42
2020-08-19 01:00:00 25.2 2 Este 8 Nordeste 0 1010.3 -- 46
2020-08-19 00:00:00 25.8 4 Nordeste 9 Norte 0 1010.3 -- 58